Reno, NV (89501)

5:40 AM PDT on October 25, 2014 (GMT -0700)
UNR Campus, LMR Roof | Change Station
CLOSE
Current Station
Personal Weather Station
Location: Reno, NV
Elevation: 4570 ft
Nearby Weather Stations

Elev 4570 ft 39.54 °N, 119.81 °W | Updated 2 minutes ago

Mostly Cloudy
Mostly Cloudy
62.0 °F
Feels Like 62.0 °F
N
15.9
Wind Variable Wind from SSE
Gusts 23.6 mph

Today
High -- | Low -- °F
--% Chance of Precip.
Yesterday
High -- | Low -- °F
Precip. -- in
7:19 AM 6:06 PM
Waxing Crescent, 3% visible
Pressure 29.76 in
Visibility 10.0 miles
Clouds Mostly Cloudy 20000 ft
Dew Point 28 °F
Humidity 27%
Rainfall 0.00 in
Snow Depth 0 in
UV 0 out of 12
Pollen 3.10 out of 12
Air Quality Not available.
Flu Activity No Activity
METAR KRNO 251155Z 21023G30KT 10SM BKN200 17/M03 A2991 RMK AO2 PK WND 19035/1122 SLP077 T01721033 10183 20144 56012

More Conditions Fewer Conditions

Pressure 29.76 in
Visibility 10.0 miles
Clouds Mostly Cloudy 20000 ft
Dew Point 28 °F
Humidity 27%
Rainfall 0.00 in
Snow Depth 0 in
UV 0 out of 12
Pollen 3.10 out of 12
Air Quality Not available.
Flu Activity No Activity
METAR KRNO 251155Z 21023G30KT 10SM BKN200 17/M03 A2991 RMK AO2 PK WND 19035/1122 SLP077 T01721033 10183 20144 56012

More Conditions Fewer Conditions

10-Day Weather Forecast

Almanac

Astronomy

Oct. 25, 2014 Rise Set
Actual Time 7:19 AM PDT 6:06 PM PDT
Civil Twilight 6:52 AM PDT 6:33 PM PDT
Nautical Twilight 6:20 AM PDT 7:05 PM PDT
Astronomical Twilight 5:49 AM PDT 7:36 PM PDT
Moon 9:03 AM PDT 7:33 PM PDT
Length of Visible Light 11h 41m
Length of Day
10h 46m
Tomorrow will be 2m 23s shorter.
Waxing Crescent, 3% of the Moon is Illuminated
Today
Waxing Crescent
Oct 30
First Quarter
Nov 6
Full
Nov 14
Last Quarter
Nov 22
New

Today's Extremes

State Highs State Lows

Community

WunderPhotos

Upload Photos

1,764,821 photos uploaded!

Nearby

Snow Depth

Station Depth Elevation
Mt. Rose Ski Area 0 in 8850 ft
Marlette Lake 0 in 8000 ft
Big Creek Summit 1 in 8700 ft
Sheldon 0 in 5860 ft
Lewis Peak 0 in 7400 ft

Earthquake Activity

City Distance Mag. Time & Date
Gerlach-Empire, Nevada 53 miles 2.5 7:16 AM PDT
2014-10-23
Minimum magnitude displayed is 2.5.

Coastal Water Temperatures

Place Temperature
No Stations Reporting

Nearby Weather Stations